Time;durP1;ratioP1;P1;durP2;ratioP2;P2;SDS_P1;SDS_P2;PMS_P1;PMS_P2;Temp;Humidity;BMP_temperature;BMP_pressure;BME280_temperature;BME280_humidity;BME280_pressure;Samples;Min_cycle;Max_cycle;Signal;HPM_P1;HPM_P2
2023/09/28 00:01:21;;;;;;;3.83;3.13;;;;;;;22.01;51.68;99631.41;4916369;29;20103;-82
2023/09/28 00:03:48;;;;;;;5.40;3.25;;;;;;;22.00;52.03;99630.56;4914554;29;20111;-82
2023/09/28 00:06:15;;;;;;;4.25;3.25;;;;;;;21.99;51.92;99642.28;4913876;29;20101;-83
2023/09/28 00:08:41;;;;;;;5.63;3.10;;;;;;;21.99;51.43;99646.81;4915282;29;20123;-82
2023/09/28 00:11:08;;;;;;;4.13;3.22;;;;;;;21.97;51.32;99630.91;4915945;29;20528;-83
2023/09/28 00:13:34;;;;;;;3.97;3.55;;;;;;;21.97;51.36;99646.97;4915769;29;20056;-83
2023/09/28 00:16:01;;;;;;;5.97;3.33;;;;;;;21.96;51.53;99650.66;4915217;29;20139;-83
2023/09/28 00:18:29;;;;;;;4.28;3.25;;;;;;;21.93;51.56;99645.63;4915955;29;20048;-82
2023/09/28 00:20:56;;;;;;;3.67;3.25;;;;;;;21.91;51.64;99647.66;4915779;29;20081;-82
2023/09/28 00:23:22;;;;;;;3.45;2.95;;;;;;;21.91;51.14;99653.00;4915605;29;20136;-83
2023/09/28 00:25:49;;;;;;;5.03;3.72;;;;;;;21.89;51.40;99655.00;4914324;29;20048;-83
2023/09/28 00:28:16;;;;;;;5.78;3.75;;;;;;;21.88;51.45;99656.00;4915842;29;20524;-82
2023/09/28 00:30:44;;;;;;;4.55;3.55;;;;;;;21.86;51.40;99663.34;4915808;29;20159;-82
2023/09/28 00:33:10;;;;;;;6.93;3.28;;;;;;;21.83;51.42;99651.13;4915442;29;20052;-83
2023/09/28 00:35:37;;;;;;;5.40;3.65;;;;;;;21.81;51.49;99652.28;4915376;29;20075;-83
2023/09/28 00:38:05;;;;;;;3.83;3.45;;;;;;;21.79;51.29;99649.78;4915451;29;20044;-83
2023/09/28 00:40:32;;;;;;;6.45;3.60;;;;;;;21.78;51.19;99661.50;4915331;29;20139;-83
2023/09/28 00:43:00;;;;;;;6.10;3.55;;;;;;;21.76;51.37;99670.72;4915641;29;20052;-82
2023/09/28 00:45:27;;;;;;;4.40;3.88;;;;;;;21.72;51.52;99663.00;4915330;29;20048;-81
2023/09/28 00:48:05;;;;;;;4.85;4.00;;;;;;;21.67;51.72;99665.28;4915354;29;20051;-83
2023/09/28 00:50:32;;;;;;;4.47;3.88;;;;;;;21.67;51.61;99654.56;4915395;29;20067;-82
2023/09/28 00:53:04;;;;;;;4.05;3.53;;;;;;;21.62;51.75;99651.56;4915026;29;20051;-83
2023/09/28 00:55:32;;;;;;;6.75;3.80;;;;;;;21.63;51.58;99658.56;4914058;29;20079;-82
2023/09/28 00:58:03;;;;;;;4.88;3.70;;;;;;;21.58;51.81;99658.22;4915060;29;20052;-82
2023/09/28 01:00:31;;;;;;;6.45;3.90;;;;;;;21.57;51.60;99648.53;4915127;29;20059;-83
2023/09/28 01:03:05;;;;;;;5.07;4.35;;;;;;;21.52;52.04;99648.19;4915234;29;20063;-84
2023/09/28 01:05:34;;;;;;;4.68;3.85;;;;;;;21.53;51.63;99644.50;4914801;29;20090;-83
2023/09/28 01:08:08;;;;;;;4.50;4.10;;;;;;;21.46;52.12;99650.47;4915253;29;20056;-81
2023/09/28 01:10:36;;;;;;;5.30;4.30;;;;;;;21.47;51.98;99645.97;4914977;29;20485;-82
2023/09/28 01:13:12;;;;;;;4.50;4.07;;;;;;;21.44;52.27;99639.09;4914947;29;20063;-83
2023/09/28 01:15:47;;;;;;;6.47;3.97;;;;;;;21.40;52.34;99639.56;4914821;29;20135;-82
2023/09/28 01:18:18;;;;;;;4.60;4.18;;;;;;;21.40;52.11;99651.13;4914976;29;20087;-83
2023/09/28 01:20:47;;;;;;;4.90;3.80;;;;;;;21.38;52.31;99637.06;4914993;29;20056;-82
2023/09/28 01:23:14;;;;;;;6.32;4.25;;;;;;;21.36;52.20;99628.38;4914863;29;20135;-82
2023/09/28 01:25:40;;;;;;;7.35;4.22;;;;;;;21.34;52.32;99635.69;4914837;29;20059;-82
2023/09/28 01:28:07;;;;;;;4.78;4.28;;;;;;;21.32;52.18;99627.84;4917675;29;20052;-82
2023/09/28 01:30:34;;;;;;;5.15;4.40;;;;;;;21.31;52.41;99628.84;4921003;29;20059;-83
2023/09/28 01:33:02;;;;;;;5.15;4.13;;;;;;;21.30;52.39;99623.66;4919827;29;20151;-82
2023/09/28 01:35:30;;;;;;;5.57;3.55;;;;;;;21.29;52.19;99622.81;4921122;29;20098;-82
2023/09/28 01:38:20;;;;;;;7.50;3.95;;;;;;;21.22;52.56;99625.28;4921095;29;20060;-82
2023/09/28 01:40:48;;;;;;;4.68;4.20;;;;;;;21.29;52.45;99619.28;4920870;29;20143;-83
2023/09/28 01:43:17;;;;;;;5.00;4.05;;;;;;;21.29;52.42;99627.31;4920776;29;20075;-82
2023/09/28 01:45:45;;;;;;;4.28;3.88;;;;;;;21.29;52.48;99621.97;4920750;29;20059;-83
2023/09/28 01:48:11;;;;;;;5.18;4.00;;;;;;;21.29;52.36;99627.31;4921146;29;20044;-83
2023/09/28 01:50:38;;;;;;;6.35;4.22;;;;;;;21.28;52.23;99621.16;4920901;29;20151;-83
2023/09/28 01:53:04;;;;;;;4.05;3.65;;;;;;;21.29;52.38;99621.97;4920744;29;20056;-82
2023/09/28 01:55:31;;;;;;;6.70;4.15;;;;;;;21.29;52.35;99630.00;4921078;29;20048;-82
2023/09/28 01:57:59;;;;;;;4.57;3.60;;;;;;;21.28;52.36;99629.19;4920969;29;20056;-82
2023/09/28 02:00:26;;;;;;;5.25;3.53;;;;;;;21.28;52.46;99631.00;4920833;29;20087;-83
2023/09/28 02:02:55;;;;;;;4.03;3.63;;;;;;;21.27;52.71;99635.50;4920765;29;20087;-82
2023/09/28 02:05:22;;;;;;;4.63;3.90;;;;;;;21.28;52.66;99626.50;4920616;29;20048;-83
2023/09/28 02:07:49;;;;;;;4.43;3.75;;;;;;;21.29;52.43;99627.31;4920722;29;20052;-82
2023/09/28 02:10:16;;;;;;;4.50;3.78;;;;;;;21.27;52.19;99627.47;4920674;29;20055;-83
2023/09/28 02:12:44;;;;;;;6.00;3.63;;;;;;;21.26;52.40;99617.78;4920701;29;20485;-83
2023/09/28 02:15:14;;;;;;;4.68;3.83;;;;;;;21.26;52.34;99623.13;4920493;29;20056;-81
2023/09/28 02:17:42;;;;;;;4.90;3.83;;;;;;;21.25;52.46;99624.13;4920851;29;20055;-82
2023/09/28 02:20:10;;;;;;;6.75;4.15;;;;;;;21.24;52.46;99621.63;4920580;29;20067;-82
2023/09/28 02:22:43;;;;;;;5.75;3.72;;;;;;;21.22;52.55;99621.78;4920670;29;20079;-83
2023/09/28 02:25:18;;;;;;;10.23;3.58;;;;;;;21.18;52.58;99623.94;4920555;29;20564;-83
2023/09/28 02:27:46;;;;;;;7.38;3.80;;;;;;;21.21;52.46;99617.44;4920604;29;20060;-82
2023/09/28 02:30:17;;;;;;;4.03;3.60;;;;;;;21.19;52.72;99622.09;4920692;29;20737;-83
2023/09/28 02:32:44;;;;;;;8.73;4.38;;;;;;;21.19;52.64;99620.25;4919222;29;20043;-82
2023/09/28 02:35:16;;;;;;;4.18;3.78;;;;;;;21.16;52.72;99623.25;4918982;29;20052;-82
2023/09/28 02:37:45;;;;;;;5.63;4.10;;;;;;;21.17;52.67;99632.97;4920850;29;20060;-83
2023/09/28 02:40:13;;;;;;;5.95;4.30;;;;;;;21.14;52.40;99622.59;4917590;29;20048;-82
2023/09/28 02:42:42;;;;;;;6.40;4.07;;;;;;;21.11;52.75;99628.25;4917467;29;20062;-82
2023/09/28 02:45:11;;;;;;;6.10;4.00;;;;;;;21.08;53.09;99633.91;4917177;29;20477;-82
2023/09/28 02:47:43;;;;;;;4.95;4.10;;;;;;;21.06;52.79;99633.25;4917252;29;20063;-82
2023/09/28 02:50:11;;;;;;;4.30;3.92;;;;;;;21.06;52.87;99635.91;4917529;29;20066;-83
2023/09/28 02:52:39;;;;;;;7.45;4.20;;;;;;;21.04;52.79;99638.75;4916087;29;20056;-82
2023/09/28 02:55:07;;;;;;;7.47;4.00;;;;;;;21.03;52.80;99644.25;4915906;29;20515;-82
2023/09/28 02:57:35;;;;;;;5.40;3.90;;;;;;;21.02;52.78;99643.44;4917322;29;20142;-83
2023/09/28 03:02:50;;;;;;;5.00;4.05;;;;;;;20.99;53.02;99642.91;4917177;29;20552;-82
2023/09/28 03:05:16;;;;;;;5.68;4.28;;;;;;;20.98;52.97;99643.91;4916980;29;20071;-82
2023/09/28 03:07:44;;;;;;;8.23;4.13;;;;;;;20.95;53.06;99645.91;4917184;29;20056;-81
2023/09/28 03:10:12;;;;;;;7.45;4.35;;;;;;;20.94;53.09;99646.06;4916929;29;20656;-81
2023/09/28 03:12:42;;;;;;;7.35;4.07;;;;;;;20.92;53.09;99638.19;4916713;29;20052;-82
2023/09/28 03:15:12;;;;;;;5.82;4.40;;;;;;;20.90;53.17;99645.50;4915670;29;20052;-82
2023/09/28 03:17:40;;;;;;;4.80;4.35;;;;;;;20.90;53.15;99648.19;4915724;29;20048;-81
2023/09/28 03:20:15;;;;;;;5.72;4.30;;;;;;;20.88;53.45;99652.88;4916829;29;20135;-82
2023/09/28 03:22:46;;;;;;;4.57;4.13;;;;;;;20.86;53.62;99646.78;4916796;29;20052;-82
2023/09/28 03:25:17;;;;;;;6.93;4.80;;;;;;;20.85;53.50;99660.34;4916504;29;20056;-81
2023/09/28 03:27:47;;;;;;;5.75;4.47;;;;;;;20.81;53.54;99652.63;4917020;29;20096;-81
2023/09/28 03:30:15;;;;;;;6.80;4.38;;;;;;;20.80;53.54;99663.50;4916762;29;20060;-83
2023/09/28 03:32:42;;;;;;;5.97;4.70;;;;;;;20.77;53.42;99669.16;4916510;29;20052;-82
2023/09/28 03:35:10;;;;;;;9.80;4.80;;;;;;;20.73;53.44;99665.09;4916285;29;20052;-82
2023/09/28 03:37:37;;;;;;;5.55;4.93;;;;;;;20.69;53.64;99657.41;4916406;29;20056;-82
2023/09/28 03:40:10;;;;;;;6.15;4.55;;;;;;;20.67;53.65;99653.22;4915110;29;20497;-81
2023/09/28 03:42:39;;;;;;;5.38;4.88;;;;;;;20.64;54.03;99661.53;4916492;29;20501;-82
2023/09/28 03:45:10;;;;;;;6.55;4.82;;;;;;;20.59;54.09;99675.38;4916088;29;20091;-81
2023/09/28 03:47:38;;;;;;;5.70;4.72;;;;;;;20.57;54.12;99686.22;4916301;29;20135;-83
2023/09/28 03:50:06;;;;;;;5.93;4.63;;;;;;;20.55;54.07;99682.88;4916188;29;20060;-81
2023/09/28 03:52:39;;;;;;;6.45;5.25;;;;;;;20.52;53.89;99690.38;4916151;29;20056;-84
2023/09/28 03:55:11;;;;;;;5.60;4.97;;;;;;;20.47;54.30;99693.50;4916161;29;20048;-82
2023/09/28 03:57:39;;;;;;;5.63;4.47;;;;;;;20.47;54.03;99698.00;4916092;29;20545;-82
2023/09/28 04:00:06;;;;;;;8.60;4.80;;;;;;;20.41;54.15;99702.97;4916002;29;20132;-81
2023/09/28 04:02:33;;;;;;;5.60;4.85;;;;;;;20.41;54.11;99694.13;4915811;29;20047;-83
2023/09/28 04:05:00;;;;;;;10.10;4.70;;;;;;;20.38;54.61;99703.28;4916032;29;20060;-81
2023/09/28 04:07:27;;;;;;;5.55;4.97;;;;;;;20.35;54.53;99700.91;4916098;29;20048;-81
2023/09/28 04:09:54;;;;;;;7.68;5.07;;;;;;;20.33;54.33;99702.06;4915894;29;20119;-81
2023/09/28 04:12:20;;;;;;;8.68;5.57;;;;;;;20.32;54.50;99706.56;4915822;29;20048;-82
2023/09/28 04:14:47;;;;;;;7.53;4.95;;;;;;;20.30;54.52;99708.56;4915563;29;20486;-81
2023/09/28 04:17:14;;;;;;;6.47;4.97;;;;;;;20.29;54.74;99704.19;4915764;29;20482;-82
2023/09/28 04:19:43;;;;;;;7.20;4.93;;;;;;;20.26;54.87;99701.84;4916064;29;20201;-81
2023/09/28 04:22:10;;;;;;;7.50;4.38;;;;;;;20.24;54.99;99704.66;4915968;29;20091;-82
2023/09/28 04:24:36;;;;;;;7.03;4.93;;;;;;;20.23;55.02;99705.66;4915628;29;20052;-81
2023/09/28 04:27:03;;;;;;;5.82;5.10;;;;;;;20.20;54.75;99703.28;4915854;29;20091;-81
2023/09/28 04:29:29;;;;;;;6.38;4.88;;;;;;;20.18;55.15;99703.41;4915692;29;20060;-83
2023/09/28 04:34:41;;;;;;;7.32;4.95;;;;;;;20.17;55.38;99722.28;4975389;23;20056;-76
2023/09/28 04:37:08;;;;;;;6.40;4.88;;;;;;;20.18;55.55;99722.13;4934750;29;20083;-78
2023/09/28 04:39:34;;;;;;;5.65;4.75;;;;;;;20.16;55.38;99716.09;4934556;29;20143;-76
2023/09/28 04:42:01;;;;;;;8.13;4.93;;;;;;;20.15;55.47;99727.78;4934609;29;20051;-76
2023/09/28 04:44:27;;;;;;;6.38;4.80;;;;;;;20.16;55.56;99718.78;4934116;29;20127;-76
2023/09/28 04:46:54;;;;;;;6.90;4.95;;;;;;;20.16;55.90;99715.25;4934600;29;20589;-75
2023/09/28 04:49:20;;;;;;;8.30;4.90;;;;;;;20.15;55.98;99714.41;4948973;28;20516;-78
2023/09/28 04:51:47;;;;;;;5.78;4.72;;;;;;;20.17;55.90;99723.13;4934318;29;20051;-77
2023/09/28 04:54:14;;;;;;;7.03;4.68;;;;;;;20.16;55.88;99726.81;4934152;29;20066;-75
2023/09/28 04:56:41;;;;;;;6.05;4.47;;;;;;;20.17;55.84;99731.16;4934228;29;20052;-79
2023/09/28 04:59:08;;;;;;;10.30;5.15;;;;;;;20.17;55.96;99728.47;4934302;29;20500;-75
2023/09/28 05:01:35;;;;;;;8.15;5.05;;;;;;;20.18;55.81;99732.81;4934264;29;20087;-74
2023/09/28 05:04:03;;;;;;;5.78;4.55;;;;;;;20.18;56.24;99732.81;4933516;29;20065;-77
2023/09/28 05:06:29;;;;;;;6.00;4.82;;;;;;;20.17;55.76;99731.16;4934265;29;20597;-75
2023/09/28 05:08:56;;;;;;;9.40;5.35;;;;;;;20.16;56.30;99739.31;4934214;29;20139;-78
2023/09/28 05:11:22;;;;;;;10.30;4.85;;;;;;;20.16;56.18;99742.84;4933977;29;20060;-75
2023/09/28 05:13:51;;;;;;;6.40;5.00;;;;;;;20.13;55.90;99735.09;4934119;29;20060;-75
2023/09/28 05:16:18;;;;;;;6.13;4.55;;;;;;;20.12;56.10;99744.13;4934176;29;20061;-76
2023/09/28 05:18:45;;;;;;;8.20;5.03;;;;;;;20.10;56.32;99738.06;4934223;29;20048;-75
2023/09/28 05:21:12;;;;;;;6.78;4.88;;;;;;;20.10;56.36;99739.88;4933854;29;20922;-77
2023/09/28 05:23:39;;;;;;;6.75;5.13;;;;;;;20.09;56.29;99743.56;4933885;29;20106;-77
2023/09/28 05:26:06;;;;;;;8.02;5.43;;;;;;;20.06;56.55;99744.72;4948328;28;20051;-75
2023/09/28 05:28:32;;;;;;;6.78;5.10;;;;;;;20.05;56.34;99748.38;4934159;29;20901;-78
2023/09/28 05:30:59;;;;;;;8.73;5.50;;;;;;;20.05;56.52;99748.38;4933851;29;20134;-78
2023/09/28 05:33:26;;;;;;;7.60;5.18;;;;;;;20.03;56.75;99745.84;4934003;29;20130;-75
2023/09/28 05:35:53;;;;;;;9.45;5.22;;;;;;;20.03;56.78;99745.84;4932337;29;20094;-79
2023/09/28 05:38:20;;;;;;;8.30;5.40;;;;;;;20.04;56.91;99752.03;4933800;29;20051;-79
2023/09/28 05:40:46;;;;;;;8.88;5.40;;;;;;;20.03;56.96;99759.22;4930542;29;20044;-76
2023/09/28 05:43:13;;;;;;;7.00;5.30;;;;;;;20.04;56.89;99752.03;4932263;29;20059;-75
2023/09/28 05:45:39;;;;;;;5.35;4.72;;;;;;;20.04;56.84;99758.22;4933237;29;20090;-77
2023/09/28 05:48:06;;;;;;;6.47;5.25;;;;;;;20.05;56.85;99759.06;4932192;29;20059;-80
2023/09/28 05:50:33;;;;;;;11.20;5.20;;;;;;;20.06;56.88;99755.41;4933256;29;20158;-77
2023/09/28 05:53:00;;;;;;;7.57;4.90;;;;;;;20.05;56.81;99753.72;4933100;29;20059;-78
2023/09/28 05:55:27;;;;;;;5.78;4.85;;;;;;;20.05;57.01;99759.91;4933139;29;20564;-77
2023/09/28 05:57:53;;;;;;;5.90;4.65;;;;;;;20.04;57.21;99755.53;4933775;29;20071;-75
2023/09/28 06:00:20;;;;;;;6.85;5.13;;;;;;;20.04;57.06;99758.22;4933395;29;20508;-78
2023/09/28 06:02:46;;;;;;;6.30;5.18;;;;;;;20.05;57.19;99761.72;4949293;29;20056;-75
2023/09/28 06:05:13;;;;;;;6.90;5.07;;;;;;;20.04;57.19;99757.38;4933677;29;20060;-75
2023/09/28 06:07:40;;;;;;;7.78;5.25;;;;;;;20.02;57.09;99754.88;4934919;29;20056;-79
2023/09/28 06:10:08;;;;;;;7.72;5.63;;;;;;;20.02;57.17;99759.34;4934784;29;20048;-76
2023/09/28 06:12:35;;;;;;;6.53;5.28;;;;;;;20.02;57.08;99765.56;4933427;29;20048;-79
2023/09/28 06:15:04;;;;;;;6.50;5.18;;;;;;;20.02;57.19;99772.72;4934410;29;20060;-80
2023/09/28 06:17:33;;;;;;;6.35;5.10;;;;;;;20.03;57.33;99777.06;4935790;29;20667;-76
2023/09/28 06:20:00;;;;;;;8.85;5.43;;;;;;;20.02;57.38;99789.59;4951198;29;20054;-80
2023/09/28 06:22:27;;;;;;;6.07;5.15;;;;;;;20.02;57.47;99786.91;4935070;29;20067;-78
2023/09/28 06:24:55;;;;;;;7.50;5.35;;;;;;;20.02;57.37;99797.63;4936490;29;20054;-78
2023/09/28 06:27:25;;;;;;;6.50;4.95;;;;;;;20.02;57.80;99804.78;4936719;29;20540;-77
2023/09/28 06:29:53;;;;;;;6.68;5.28;;;;;;;20.03;57.75;99812.66;4935531;29;20563;-78
2023/09/28 06:32:21;;;;;;;6.53;5.60;;;;;;;20.03;57.88;99817.13;4951466;28;20104;-79
2023/09/28 06:34:48;;;;;;;9.30;5.05;;;;;;;20.04;57.79;99827.69;4936276;29;20648;-76
2023/09/28 06:37:15;;;;;;;10.60;5.07;;;;;;;20.05;57.74;99831.22;4936629;29;20047;-79
2023/09/28 06:39:42;;;;;;;5.85;4.80;;;;;;;20.07;58.05;99837.22;4935479;29;20056;-81
2023/09/28 06:42:08;;;;;;;6.97;4.72;;;;;;;20.09;58.35;99837.09;4936421;29;20050;-78
2023/09/28 06:44:55;;;;;;;8.02;5.18;;;;;;;20.11;57.94;99838.63;4936788;29;20051;-76
2023/09/28 06:47:21;;;;;;;6.75;4.75;;;;;;;20.17;58.40;99855.91;4936143;29;20513;-77
2023/09/28 06:49:51;;;;;;;9.57;5.13;;;;;;;20.18;58.72;99853.09;4935072;29;20062;-76
2023/09/28 06:52:18;;;;;;;7.80;4.93;;;;;;;20.22;58.49;99858.97;4935033;29;20058;-78
2023/09/28 06:54:44;;;;;;;9.02;5.10;;;;;;;20.25;58.56;99850.66;4949653;28;20111;-79
2023/09/28 06:57:11;;;;;;;7.47;4.90;;;;;;;20.28;58.44;99858.38;4950122;29;20043;-78
2023/09/28 06:59:37;;;;;;;5.68;4.70;;;;;;;20.33;58.54;99857.91;4936269;29;20056;-78
2023/09/28 07:02:04;;;;;;;7.00;4.70;;;;;;;20.36;58.42;99851.44;4936197;29;20508;-77
2023/09/28 07:04:34;;;;;;;9.18;5.18;;;;;;;20.38;59.08;99855.66;4935356;29;20062;-87
2023/09/28 07:07:00;;;;;;;9.30;5.03;;;;;;;20.42;58.63;99850.84;4936254;29;20155;-76
2023/09/28 07:09:26;;;;;;;8.98;5.22;;;;;;;20.46;58.87;99857.59;4936084;29;20142;-80
2023/09/28 07:11:53;;;;;;;6.60;4.68;;;;;;;20.48;58.68;99860.94;4950918;29;20107;-81
2023/09/28 07:14:20;;;;;;;8.52;4.97;;;;;;;20.51;58.96;99870.50;4935767;29;20087;-76
2023/09/28 07:16:47;;;;;;;7.28;4.82;;;;;;;20.54;59.00;99875.53;4936231;29;20063;-75
2023/09/28 07:19:13;;;;;;;6.93;4.60;;;;;;;20.56;59.08;99873.56;4936098;29;20059;-80
2023/09/28 07:21:44;;;;;;;6.72;4.78;;;;;;;20.58;58.86;99871.59;4935931;29;20568;-75
2023/09/28 07:24:10;;;;;;;10.02;5.65;;;;;;;20.61;59.07;99882.00;4936231;29;20432;-79
2023/09/28 07:26:46;;;;;;;6.47;5.20;;;;;;;20.65;59.03;99877.16;4935455;29;20044;-79
2023/09/28 07:29:12;;;;;;;10.80;5.25;;;;;;;20.66;59.15;99869.00;4935869;29;20056;-77
2023/09/28 07:31:39;;;;;;;9.38;5.05;;;;;;;20.68;59.07;99867.00;4935839;29;20060;-77
2023/09/28 07:34:06;;;;;;;7.55;5.13;;;;;;;20.70;59.08;99861.50;4935638;29;20063;-77
2023/09/28 07:36:32;;;;;;;8.60;5.53;;;;;;;20.71;59.20;99865.88;4936053;29;20054;-80
2023/09/28 07:38:59;;;;;;;8.82;5.03;;;;;;;20.73;59.24;99876.41;4935704;29;20048;-78
2023/09/28 07:41:26;;;;;;;6.88;5.38;;;;;;;20.75;59.00;99872.59;4935413;29;20051;-78
2023/09/28 07:43:52;;;;;;;13.65;4.57;;;;;;;20.77;58.98;99875.13;4935775;29;20047;-75
2023/09/28 07:46:19;;;;;;;5.43;4.22;;;;;;;20.79;58.88;99870.47;4935931;29;20059;-77
2023/09/28 07:48:46;;;;;;;8.55;4.60;;;;;;;20.80;58.89;99874.81;4935747;29;20051;-76
2023/09/28 07:51:13;;;;;;;7.22;4.32;;;;;;;20.83;58.71;99882.56;4935628;29;20154;-75
2023/09/28 07:53:40;;;;;;;8.13;4.43;;;;;;;20.84;58.75;99886.91;4935299;29;20068;-77
2023/09/28 07:56:06;;;;;;;8.93;4.78;;;;;;;20.87;58.66;99883.06;4935071;29;20500;-78
2023/09/28 07:58:33;;;;;;;5.60;4.10;;;;;;;20.89;58.77;99892.66;4935500;29;20055;-75
2023/09/28 08:01:01;;;;;;;6.57;4.55;;;;;;;20.91;58.95;99893.38;4935173;29;20142;-75
2023/09/28 08:03:28;;;;;;;6.82;4.32;;;;;;;20.96;59.04;99892.91;4935220;29;20047;-80
2023/09/28 08:05:54;;;;;;;8.07;4.75;;;;;;;20.99;58.95;99902.44;4935039;29;20176;-78
2023/09/28 08:08:22;;;;;;;8.38;4.30;;;;;;;21.03;58.64;99909.19;4935171;29;20564;-77
2023/09/28 08:10:49;;;;;;;6.47;4.20;;;;;;;21.06;58.65;99906.22;4934748;29;20060;-75
2023/09/28 08:13:16;;;;;;;7.50;4.03;;;;;;;21.11;58.92;99909.25;4934881;29;20054;-78
2023/09/28 08:15:44;;;;;;;10.95;4.65;;;;;;;21.13;59.03;99923.34;4934701;29;20146;-80
2023/09/28 08:18:12;;;;;;;8.85;4.97;;;;;;;21.18;59.08;99933.59;4935057;29;20544;-78
2023/09/28 08:20:39;;;;;;;6.88;4.57;;;;;;;21.20;59.25;99927.09;4934722;29;20051;-81
2023/09/28 08:23:13;;;;;;;7.07;4.70;;;;;;;21.25;59.24;99940.03;4934409;29;20584;-77
2023/09/28 08:25:41;;;;;;;9.15;4.82;;;;;;;21.30;59.46;99939.56;4934646;29;20044;-75
2023/09/28 08:28:08;;;;;;;6.18;3.97;;;;;;;21.34;59.45;99936.41;4934806;29;20151;-80
2023/09/28 08:30:35;;;;;;;6.82;4.47;;;;;;;21.39;59.55;99948.50;4934770;29;20111;-78
2023/09/28 08:33:01;;;;;;;8.35;4.43;;;;;;;21.44;59.54;99955.09;4933832;29;20086;-77
2023/09/28 08:35:29;;;;;;;10.13;4.95;;;;;;;21.52;59.82;99945.44;4917030;29;20056;-79
2023/09/28 08:37:56;;;;;;;9.95;5.22;;;;;;;21.56;59.49;99936.09;4933616;29;20047;-81
2023/09/28 08:40:23;;;;;;;7.93;4.68;;;;;;;21.62;59.48;99935.47;4934279;29;20044;-78
2023/09/28 08:42:50;;;;;;;9.23;5.15;;;;;;;21.68;59.16;99942.88;4934085;29;20047;-77
2023/09/28 08:45:17;;;;;;;8.35;4.70;;;;;;;21.74;58.93;99957.53;4934312;29;20052;-77
2023/09/28 08:47:48;;;;;;;9.10;4.22;;;;;;;21.78;59.11;99958.03;4934582;29;20047;-77
2023/09/28 08:50:33;;;;;;;7.80;4.28;;;;;;;21.81;59.19;99955.91;4934260;29;20055;-77
2023/09/28 08:53:00;;;;;;;7.50;4.65;;;;;;;21.91;58.95;99966.53;4932960;29;20405;-78
2023/09/28 08:55:28;;;;;;;8.70;4.03;;;;;;;21.96;58.89;99958.00;4934235;29;20480;-78
2023/09/28 08:57:57;;;;;;;7.90;4.65;;;;;;;22.01;58.76;99944.97;4933780;29;20048;-76
2023/09/28 09:00:28;;;;;;;10.77;4.68;;;;;;;22.06;58.81;99955.25;4933579;29;20111;-79
2023/09/28 09:02:58;;;;;;;7.28;4.30;;;;;;;22.13;58.75;99961.66;4933437;29;20048;-78
2023/09/28 09:05:29;;;;;;;7.60;4.22;;;;;;;22.19;58.44;99962.84;4931308;29;20043;-78
2023/09/28 09:07:59;;;;;;;6.90;4.00;;;;;;;22.25;58.54;99970.25;4933863;29;20056;-81
2023/09/28 09:10:27;;;;;;;6.18;3.55;;;;;;;22.30;58.27;99967.94;4933486;29;20062;-77
2023/09/28 09:12:55;;;;;;;8.70;3.75;;;;;;;22.36;57.82;99961.09;4933561;29;20111;-81
2023/09/28 09:15:21;;;;;;;9.40;3.80;;;;;;;22.40;57.87;99962.47;4933402;29;20048;-78
2023/09/28 09:17:58;;;;;;;7.75;3.42;;;;;;;22.43;57.83;99977.41;4933704;29;20047;-75
2023/09/28 09:20:27;;;;;;;5.25;3.00;;;;;;;22.49;57.40;99977.59;4933720;29;20646;-76
2023/09/28 09:22:55;;;;;;;7.65;3.05;;;;;;;22.54;57.42;99981.63;4932383;29;20236;-76
2023/09/28 09:25:41;;;;;;;7.70;3.20;;;;;;;22.54;56.89;99974.41;4932740;29;21456;-81
2023/09/28 09:28:07;;;;;;;7.30;3.53;;;;;;;22.61;56.84;99969.31;4933528;29;20074;-80
2023/09/28 09:30:37;;;;;;;7.28;3.95;;;;;;;22.63;56.51;99964.59;4933362;29;20106;-76
2023/09/28 09:33:07;;;;;;;5.70;3.33;;;;;;;22.64;56.90;99960.91;4933228;29;20525;-76
2023/09/28 09:35:34;;;;;;;6.72;3.35;;;;;;;22.68;56.48;99964.94;4933490;29;20131;-77
2023/09/28 09:38:00;;;;;;;8.68;3.30;;;;;;;22.70;56.38;99962.13;4933164;29;20507;-78
2023/09/28 09:40:27;;;;;;;7.80;3.20;;;;;;;22.72;56.36;99963.63;4933552;29;20044;-79
2023/09/28 09:42:53;;;;;;;7.45;3.60;;;;;;;22.76;56.21;99962.31;4933523;29;20083;-77
2023/09/28 09:45:20;;;;;;;10.05;3.58;;;;;;;22.81;56.53;99955.59;4933156;29;20537;-79
2023/09/28 09:47:48;;;;;;;7.72;3.30;;;;;;;22.85;56.90;99949.75;4933546;29;20053;-78
2023/09/28 09:50:17;;;;;;;8.25;3.65;;;;;;;22.89;56.55;99947.59;4936597;29;20064;-76
2023/09/28 09:52:44;;;;;;;9.25;3.50;;;;;;;22.95;56.30;99954.97;4936929;29;20131;-77
2023/09/28 09:55:12;;;;;;;9.82;3.47;;;;;;;23.01;56.29;99978.50;4937323;29;20389;-77
2023/09/28 09:57:42;;;;;;;7.22;3.47;;;;;;;23.08;55.89;99969.75;4937153;29;20058;-79
2023/09/28 10:00:15;;;;;;;7.95;3.85;;;;;;;23.16;56.20;99967.09;4937312;29;20154;-78
2023/09/28 10:02:44;;;;;;;7.53;3.65;;;;;;;23.24;55.94;99966.25;4937026;29;20059;-79
2023/09/28 10:05:13;;;;;;;9.98;4.05;;;;;;;23.32;56.07;99976.19;4937027;29;20055;-81
2023/09/28 10:07:42;;;;;;;10.13;3.80;;;;;;;23.40;56.35;99971.69;4937401;29;20507;-76
2023/09/28 10:10:13;;;;;;;8.48;3.95;;;;;;;23.52;56.15;99968.69;4937705;29;20055;-76
2023/09/28 10:12:40;;;;;;;5.47;3.20;;;;;;;23.65;56.06;99976.22;4936733;29;20059;-80
2023/09/28 10:15:08;;;;;;;5.88;3.05;;;;;;;23.77;56.14;99974.88;4936287;29;20131;-76
2023/09/28 10:17:35;;;;;;;7.20;3.50;;;;;;;23.92;55.42;99977.72;4936385;29;20091;-77
2023/09/28 10:20:05;;;;;;;7.28;3.55;;;;;;;24.07;55.18;99966.31;4936495;29;20063;-78
2023/09/28 10:22:31;;;;;;;6.72;3.47;;;;;;;24.20;54.50;99963.94;4936626;29;20047;-77
2023/09/28 10:24:58;;;;;;;6.65;3.75;;;;;;;24.29;53.96;99970.13;4936088;29;20059;-76
2023/09/28 10:27:24;;;;;;;8.18;3.47;;;;;;;24.36;53.24;99953.31;4936764;29;20055;-79
2023/09/28 10:30:24;;;;;;;5.43;3.25;;;;;;;24.37;53.34;99965.75;4937441;29;20052;-77
2023/09/28 10:38:22;;;;;;;7.83;3.30;;;;;;;24.74;53.41;99966.94;4737488;23;20417;-76
2023/09/28 10:41:06;;;;;;;9.27;3.53;;;;;;;24.82;52.96;99983.03;4917552;29;20304;-74
2023/09/28 10:43:37;;;;;;;5.45;3.30;;;;;;;24.95;52.72;99990.59;5158005;23;20082;-74
2023/09/28 10:46:05;;;;;;;8.95;3.65;;;;;;;25.01;52.06;99989.06;4955643;28;20251;-75
2023/09/28 10:48:44;;;;;;;10.18;3.92;;;;;;;25.02;51.75;99993.41;4946112;28;20090;-74
2023/09/28 10:51:18;;;;;;;6.45;3.33;;;;;;;25.04;51.42;100004.84;4935218;29;20055;-76
2023/09/28 10:53:45;;;;;;;7.05;3.47;;;;;;;25.05;51.77;100001.16;4936276;29;20056;-74
2023/09/28 10:56:12;;;;;;;9.05;3.53;;;;;;;25.02;51.68;100009.56;4936509;29;20134;-73
2023/09/28 10:58:43;;;;;;;10.45;3.88;;;;;;;24.98;51.22;100008.25;4936516;29;20055;-74
2023/09/28 11:01:10;;;;;;;10.93;3.72;;;;;;;24.95;51.68;99997.81;4948451;28;20055;-75
2023/09/28 11:03:37;;;;;;;10.40;4.38;;;;;;;24.93;51.26;99992.59;4956838;28;20047;-75
2023/09/28 11:06:04;;;;;;;8.00;3.70;;;;;;;24.92;51.44;99992.78;4969466;28;20042;-75
2023/09/28 11:08:32;;;;;;;7.32;3.38;;;;;;;24.91;51.40;99999.19;4965696;28;20061;-74
2023/09/28 11:11:01;;;;;;;10.15;3.90;;;;;;;24.89;51.59;100006.63;4974667;28;20086;-74
2023/09/28 11:13:30;;;;;;;9.90;3.65;;;;;;;24.86;51.50;99999.72;4957247;28;20051;-74
2023/09/28 11:15:57;;;;;;;8.98;3.80;;;;;;;24.89;52.01;99987.78;4955065;28;20138;-74
2023/09/28 11:18:25;;;;;;;8.45;3.25;;;;;;;25.03;52.71;99994.25;4955272;28;20558;-75
2023/09/28 11:20:58;;;;;;;8.95;3.03;;;;;;;25.32;53.59;99990.88;4955164;28;20051;-75
2023/09/28 11:23:25;;;;;;;6.32;3.47;;;;;;;25.81;54.25;99996.94;4953995;28;20039;-74
2023/09/28 11:25:52;;;;;;;7.47;3.30;;;;;;;26.38;53.38;99991.16;4962029;28;20059;-75
2023/09/28 11:28:21;;;;;;;7.38;3.40;;;;;;;26.98;53.29;99976.78;4974212;28;20043;-75
2023/09/28 11:31:03;;;;;;;7.30;3.08;;;;;;;27.55;50.25;99976.94;4967615;28;20098;-75
2023/09/28 11:33:29;;;;;;;8.07;3.50;;;;;;;28.00;49.56;99992.09;4954049;28;20134;-74
2023/09/28 11:35:56;;;;;;;6.38;3.33;;;;;;;28.35;48.67;99992.97;4951020;29;20047;-76
2023/09/28 11:38:23;;;;;;;7.28;3.10;;;;;;;28.69;47.94;99997.72;4940482;29;20074;-74
2023/09/28 11:40:54;;;;;;;6.75;3.42;;;;;;;29.02;46.77;100005.16;4934860;29;20083;-75
2023/09/28 11:43:20;;;;;;;10.32;3.15;;;;;;;29.32;46.09;99987.72;4943263;29;20077;-75
2023/09/28 11:45:49;;;;;;;7.70;3.65;;;;;;;29.56;45.67;99983.59;4940670;29;20051;-76
2023/09/28 11:48:22;;;;;;;8.10;3.22;;;;;;;29.75;44.33;99998.22;4954310;28;20055;-76